sensor_id;sensor_type;location;lat;lon;timestamp;temperature;humidity
35363;DHT22;21463;47.480;8.214;2023-06-01T00:00:05;21.30;41.70
35363;DHT22;21463;47.480;8.214;2023-06-01T00:01:13;21.40;41.70
35363;DHT22;21463;47.480;8.214;2023-06-01T00:02:16;21.30;41.70
35363;DHT22;21463;47.480;8.214;2023-06-01T00:03:18;21.30;41.70
35363;DHT22;21463;47.480;8.214;2023-06-01T00:04:21;21.30;41.70
35363;DHT22;21463;47.480;8.214;2023-06-01T00:05:24;21.30;41.70
35363;DHT22;21463;47.480;8.214;2023-06-01T00:06:26;21.30;41.70
35363;DHT22;21463;47.480;8.214;2023-06-01T00:07:32;21.30;41.70
35363;DHT22;21463;47.480;8.214;2023-06-01T00:08:35;21.30;41.70
35363;DHT22;21463;47.480;8.214;2023-06-01T00:09:37;21.30;41.70
35363;DHT22;21463;47.480;8.214;2023-06-01T00:10:39;21.30;41.70
35363;DHT22;21463;47.480;8.214;2023-06-01T00:11:43;21.30;41.70
35363;DHT22;21463;47.480;8.214;2023-06-01T00:12:45;21.00;41.50
35363;DHT22;21463;47.480;8.214;2023-06-01T00:13:49;21.40;41.70
35363;DHT22;21463;47.480;8.214;2023-06-01T00:14:52;21.30;41.70
35363;DHT22;21463;47.480;8.214;2023-06-01T00:15:54;21.30;41.70
35363;DHT22;21463;47.480;8.214;2023-06-01T00:16:58;21.30;41.70
35363;DHT22;21463;47.480;8.214;2023-06-01T00:18:01;21.30;41.70
35363;DHT22;21463;47.480;8.214;2023-06-01T00:19:03;21.30;41.70
35363;DHT22;21463;47.480;8.214;2023-06-01T00:20:06;21.30;41.70
35363;DHT22;21463;47.480;8.214;2023-06-01T00:21:10;21.30;41.70
35363;DHT22;21463;47.480;8.214;2023-06-01T00:22:13;21.30;41.70
35363;DHT22;21463;47.480;8.214;2023-06-01T00:23:17;21.30;41.70
35363;DHT22;21463;47.480;8.214;2023-06-01T00:24:22;21.30;41.70
35363;DHT22;21463;47.480;8.214;2023-06-01T00:25:25;21.30;41.70
35363;DHT22;21463;47.480;8.214;2023-06-01T00:26:27;21.30;41.70
35363;DHT22;21463;47.480;8.214;2023-06-01T00:27:32;21.30;41.70
35363;DHT22;21463;47.480;8.214;2023-06-01T00:28:36;21.40;41.70
35363;DHT22;21463;47.480;8.214;2023-06-01T00:29:38;21.30;41.70
35363;DHT22;21463;47.480;8.214;2023-06-01T00:30:41;21.30;41.70
35363;DHT22;21463;47.480;8.214;2023-06-01T00:31:44;21.30;41.70
35363;DHT22;21463;47.480;8.214;2023-06-01T00:32:47;21.30;41.70
35363;DHT22;21463;47.480;8.214;2023-06-01T00:33:49;21.30;41.70
35363;DHT22;21463;47.480;8.214;2023-06-01T00:34:52;21.30;41.70
35363;DHT22;21463;47.480;8.214;2023-06-01T00:35:55;21.30;41.70
35363;DHT22;21463;47.480;8.214;2023-06-01T00:36:58;21.30;41.70
35363;DHT22;21463;47.480;8.214;2023-06-01T00:38:00;21.30;41.70
35363;DHT22;21463;47.480;8.214;2023-06-01T00:39:04;21.30;41.70
35363;DHT22;21463;47.480;8.214;2023-06-01T00:40:07;21.30;41.70
35363;DHT22;21463;47.480;8.214;2023-06-01T00:41:10;21.30;41.70
35363;DHT22;21463;47.480;8.214;2023-06-01T00:42:13;21.30;41.70
35363;DHT22;21463;47.480;8.214;2023-06-01T00:43:15;21.30;41.70
35363;DHT22;21463;47.480;8.214;2023-06-01T00:44:18;21.30;41.70
35363;DHT22;21463;47.480;8.214;2023-06-01T00:45:23;21.30;41.70
35363;DHT22;21463;47.480;8.214;2023-06-01T00:46:26;21.30;41.70
35363;DHT22;21463;47.480;8.214;2023-06-01T00:47:30;21.30;41.70
35363;DHT22;21463;47.480;8.214;2023-06-01T00:48:38;21.30;41.70
35363;DHT22;21463;47.480;8.214;2023-06-01T00:49:40;21.30;41.70
35363;DHT22;21463;47.480;8.214;2023-06-01T00:50:43;21.30;41.70
35363;DHT22;21463;47.480;8.214;2023-06-01T00:51:46;21.30;41.70
35363;DHT22;21463;47.480;8.214;2023-06-01T00:52:49;21.30;41.70
35363;DHT22;21463;47.480;8.214;2023-06-01T00:53:52;21.30;41.70
35363;DHT22;21463;47.480;8.214;2023-06-01T00:54:54;21.30;41.70
35363;DHT22;21463;47.480;8.214;2023-06-01T00:55:59;21.30;41.70
35363;DHT22;21463;47.480;8.214;2023-06-01T00:57:01;21.30;41.70
35363;DHT22;21463;47.480;8.214;2023-06-01T00:58:07;21.30;41.70
35363;DHT22;21463;47.480;8.214;2023-06-01T00:59:10;21.30;41.70
35363;DHT22;21463;47.480;8.214;2023-06-01T01:00:13;21.30;41.70
35363;DHT22;21463;47.480;8.214;2023-06-01T01:01:16;21.30;41.70
35363;DHT22;21463;47.480;8.214;2023-06-01T01:02:21;21.30;41.70
35363;DHT22;21463;47.480;8.214;2023-06-01T01:03:25;21.30;41.70
35363;DHT22;21463;47.480;8.214;2023-06-01T01:04:28;21.30;41.70
35363;DHT22;21463;47.480;8.214;2023-06-01T01:05:30;21.40;41.80
35363;DHT22;21463;47.480;8.214;2023-06-01T01:06:39;21.30;42.30
35363;DHT22;21463;47.480;8.214;2023-06-01T01:07:55;21.30;41.80
35363;DHT22;21463;47.480;8.214;2023-06-01T01:09:08;21.20;41.70
35363;DHT22;21463;47.480;8.214;2023-06-01T01:10:19;21.30;41.80
35363;DHT22;21463;47.480;8.214;2023-06-01T01:11:25;21.30;41.80
35363;DHT22;21463;47.480;8.214;2023-06-01T01:12:33;21.30;41.80
35363;DHT22;21463;47.480;8.214;2023-06-01T01:13:46;21.20;41.80
35363;DHT22;21463;47.480;8.214;2023-06-01T01:15:07;21.20;41.70
35363;DHT22;21463;47.480;8.214;2023-06-01T01:16:15;21.30;41.80
35363;DHT22;21463;47.480;8.214;2023-06-01T01:18:28;21.30;41.80
35363;DHT22;21463;47.480;8.214;2023-06-01T01:20:41;21.30;41.80
35363;DHT22;21463;47.480;8.214;2023-06-01T01:21:45;21.30;41.80
35363;DHT22;21463;47.480;8.214;2023-06-01T01:24:21;21.30;41.80
35363;DHT22;21463;47.480;8.214;2023-06-01T01:26:46;21.30;41.90
35363;DHT22;21463;47.480;8.214;2023-06-01T01:28:06;21.30;41.90
35363;DHT22;21463;47.480;8.214;2023-06-01T01:29:10;21.30;41.90
35363;DHT22;21463;47.480;8.214;2023-06-01T01:30:13;21.30;41.90
35363;DHT22;21463;47.480;8.214;2023-06-01T01:31:18;21.30;41.90
35363;DHT22;21463;47.480;8.214;2023-06-01T01:32:22;21.20;42.40
35363;DHT22;21463;47.480;8.214;2023-06-01T01:33:26;21.30;41.90
35363;DHT22;21463;47.480;8.214;2023-06-01T01:34:30;21.30;41.90
35363;DHT22;21463;47.480;8.214;2023-06-01T01:35:33;21.30;41.90
35363;DHT22;21463;47.480;8.214;2023-06-01T01:36:37;21.30;41.90
35363;DHT22;21463;47.480;8.214;2023-06-01T01:37:49;21.30;41.90
35363;DHT22;21463;47.480;8.214;2023-06-01T01:38:52;21.30;41.90
35363;DHT22;21463;47.480;8.214;2023-06-01T01:39:55;21.30;42.00
35363;DHT22;21463;47.480;8.214;2023-06-01T01:40:59;21.30;42.00
35363;DHT22;21463;47.480;8.214;2023-06-01T01:42:02;21.30;42.00
35363;DHT22;21463;47.480;8.214;2023-06-01T01:43:05;21.20;42.00
35363;DHT22;21463;47.480;8.214;2023-06-01T01:44:07;21.30;42.00
35363;DHT22;21463;47.480;8.214;2023-06-01T01:45:10;21.30;42.00
35363;DHT22;21463;47.480;8.214;2023-06-01T01:47:34;21.30;42.00
35363;DHT22;21463;47.480;8.214;2023-06-01T01:48:44;21.30;42.00
35363;DHT22;21463;47.480;8.214;2023-06-01T01:49:49;21.20;42.00
35363;DHT22;21463;47.480;8.214;2023-06-01T01:50:55;21.30;42.00
35363;DHT22;21463;47.480;8.214;2023-06-01T01:52:04;21.30;42.10
35363;DHT22;21463;47.480;8.214;2023-06-01T01:53:11;21.30;42.00
35363;DHT22;21463;47.480;8.214;2023-06-01T01:54:14;21.30;42.10
35363;DHT22;21463;47.480;8.214;2023-06-01T01:55:19;21.20;42.00
35363;DHT22;21463;47.480;8.214;2023-06-01T01:56:27;21.30;42.10
35363;DHT22;21463;47.480;8.214;2023-06-01T01:57:30;21.20;42.00
35363;DHT22;21463;47.480;8.214;2023-06-01T01:58:33;21.20;42.10
35363;DHT22;21463;47.480;8.214;2023-06-01T01:59:35;21.20;42.10
35363;DHT22;21463;47.480;8.214;2023-06-01T02:00:38;21.30;42.10
35363;DHT22;21463;47.480;8.214;2023-06-01T02:01:42;21.30;42.10
35363;DHT22;21463;47.480;8.214;2023-06-01T02:02:48;21.30;42.20
35363;DHT22;21463;47.480;8.214;2023-06-01T02:04:01;21.30;42.10
35363;DHT22;21463;47.480;8.214;2023-06-01T02:05:04;21.30;42.20
35363;DHT22;21463;47.480;8.214;2023-06-01T02:06:06;21.20;42.10
35363;DHT22;21463;47.480;8.214;2023-06-01T02:07:10;21.20;42.10
35363;DHT22;21463;47.480;8.214;2023-06-01T02:08:14;21.30;42.20
35363;DHT22;21463;47.480;8.214;2023-06-01T02:09:18;21.30;42.20
35363;DHT22;21463;47.480;8.214;2023-06-01T02:10:20;21.20;42.20
35363;DHT22;21463;47.480;8.214;2023-06-01T02:11:23;21.20;42.20
35363;DHT22;21463;47.480;8.214;2023-06-01T02:12:26;21.20;42.20
35363;DHT22;21463;47.480;8.214;2023-06-01T02:13:28;21.20;42.20
35363;DHT22;21463;47.480;8.214;2023-06-01T02:14:31;21.20;42.20
35363;DHT22;21463;47.480;8.214;2023-06-01T02:15:33;21.20;42.20
35363;DHT22;21463;47.480;8.214;2023-06-01T02:16:36;21.30;42.30
35363;DHT22;21463;47.480;8.214;2023-06-01T02:17:38;21.30;42.30
35363;DHT22;21463;47.480;8.214;2023-06-01T02:18:45;21.30;42.30
35363;DHT22;21463;47.480;8.214;2023-06-01T02:19:48;21.30;42.30
35363;DHT22;21463;47.480;8.214;2023-06-01T02:20:50;21.20;42.20
35363;DHT22;21463;47.480;8.214;2023-06-01T02:21:53;21.20;42.30
35363;DHT22;21463;47.480;8.214;2023-06-01T02:22:55;21.20;42.30
35363;DHT22;21463;47.480;8.214;2023-06-01T02:23:58;21.20;42.30
35363;DHT22;21463;47.480;8.214;2023-06-01T02:25:07;21.30;42.30
35363;DHT22;21463;47.480;8.214;2023-06-01T02:26:10;21.30;42.30
35363;DHT22;21463;47.480;8.214;2023-06-01T02:27:15;21.20;42.30
35363;DHT22;21463;47.480;8.214;2023-06-01T02:28:17;21.20;42.30
35363;DHT22;21463;47.480;8.214;2023-06-01T02:29:20;21.20;42.30
35363;DHT22;21463;47.480;8.214;2023-06-01T02:30:26;21.20;42.30
35363;DHT22;21463;47.480;8.214;2023-06-01T02:31:36;21.30;42.40
35363;DHT22;21463;47.480;8.214;2023-06-01T02:32:38;21.20;42.30
35363;DHT22;21463;47.480;8.214;2023-06-01T02:33:41;21.30;42.30
35363;DHT22;21463;47.480;8.214;2023-06-01T02:34:44;21.30;42.40
35363;DHT22;21463;47.480;8.214;2023-06-01T02:35:47;21.20;42.30
35363;DHT22;21463;47.480;8.214;2023-06-01T02:36:49;21.20;42.30
35363;DHT22;21463;47.480;8.214;2023-06-01T02:37:53;21.20;42.30
35363;DHT22;21463;47.480;8.214;2023-06-01T02:38:55;21.20;42.30
35363;DHT22;21463;47.480;8.214;2023-06-01T02:39:58;21.20;42.40
35363;DHT22;21463;47.480;8.214;2023-06-01T02:41:02;21.30;42.40
35363;DHT22;21463;47.480;8.214;2023-06-01T02:42:05;21.20;42.40
35363;DHT22;21463;47.480;8.214;2023-06-01T02:43:08;21.20;42.40
35363;DHT22;21463;47.480;8.214;2023-06-01T02:44:11;21.20;42.40
35363;DHT22;21463;47.480;8.214;2023-06-01T02:45:14;21.20;42.40
35363;DHT22;21463;47.480;8.214;2023-06-01T02:46:19;21.20;42.40
35363;DHT22;21463;47.480;8.214;2023-06-01T02:47:23;21.20;42.40
35363;DHT22;21463;47.480;8.214;2023-06-01T02:48:26;21.20;42.40
35363;DHT22;21463;47.480;8.214;2023-06-01T02:49:28;21.30;42.50
35363;DHT22;21463;47.480;8.214;2023-06-01T02:50:30;21.20;42.40
35363;DHT22;21463;47.480;8.214;2023-06-01T02:51:33;21.40;43.10
35363;DHT22;21463;47.480;8.214;2023-06-01T02:52:42;21.30;42.60
35363;DHT22;21463;47.480;8.214;2023-06-01T02:53:46;21.20;42.50
35363;DHT22;21463;47.480;8.214;2023-06-01T02:54:49;21.20;42.50
35363;DHT22;21463;47.480;8.214;2023-06-01T02:56:24;21.20;42.50
35363;DHT22;21463;47.480;8.214;2023-06-01T02:57:48;21.20;42.50
35363;DHT22;21463;47.480;8.214;2023-06-01T02:58:52;21.20;42.50
35363;DHT22;21463;47.480;8.214;2023-06-01T03:00:00;21.30;42.60
35363;DHT22;21463;47.480;8.214;2023-06-01T03:01:03;21.20;42.60
35363;DHT22;21463;47.480;8.214;2023-06-01T03:02:06;21.20;42.60
35363;DHT22;21463;47.480;8.214;2023-06-01T03:03:08;21.20;42.60
35363;DHT22;21463;47.480;8.214;2023-06-01T03:04:11;21.20;42.50
35363;DHT22;21463;47.480;8.214;2023-06-01T03:05:15;21.20;42.60
35363;DHT22;21463;47.480;8.214;2023-06-01T03:06:39;21.20;42.60
35363;DHT22;21463;47.480;8.214;2023-06-01T03:08:01;21.20;42.60
35363;DHT22;21463;47.480;8.214;2023-06-01T03:09:04;21.20;42.60
35363;DHT22;21463;47.480;8.214;2023-06-01T03:10:33;21.20;42.60
35363;DHT22;21463;47.480;8.214;2023-06-01T03:11:45;21.20;42.60
35363;DHT22;21463;47.480;8.214;2023-06-01T03:12:48;21.20;42.60
35363;DHT22;21463;47.480;8.214;2023-06-01T03:13:50;21.20;42.60
35363;DHT22;21463;47.480;8.214;2023-06-01T03:14:52;21.20;42.60
35363;DHT22;21463;47.480;8.214;2023-06-01T03:15:55;21.20;42.60
35363;DHT22;21463;47.480;8.214;2023-06-01T03:16:58;21.20;42.70
35363;DHT22;21463;47.480;8.214;2023-06-01T03:18:02;21.20;42.70
35363;DHT22;21463;47.480;8.214;2023-06-01T03:19:05;21.20;42.70
35363;DHT22;21463;47.480;8.214;2023-06-01T03:20:08;21.20;42.70
35363;DHT22;21463;47.480;8.214;2023-06-01T03:21:17;21.20;42.70
35363;DHT22;21463;47.480;8.214;2023-06-01T03:22:20;21.30;42.80
35363;DHT22;21463;47.480;8.214;2023-06-01T03:23:22;21.20;42.70
35363;DHT22;21463;47.480;8.214;2023-06-01T03:24:25;21.20;42.70
35363;DHT22;21463;47.480;8.214;2023-06-01T03:25:33;21.20;42.70
35363;DHT22;21463;47.480;8.214;2023-06-01T03:26:36;21.20;42.70
35363;DHT22;21463;47.480;8.214;2023-06-01T03:27:39;21.20;42.80
35363;DHT22;21463;47.480;8.214;2023-06-01T03:28:42;21.20;42.80
35363;DHT22;21463;47.480;8.214;2023-06-01T03:29:45;21.20;42.80
35363;DHT22;21463;47.480;8.214;2023-06-01T03:30:48;21.20;42.80
35363;DHT22;21463;47.480;8.214;2023-06-01T03:31:51;21.20;42.80
35363;DHT22;21463;47.480;8.214;2023-06-01T03:32:57;21.20;42.80
35363;DHT22;21463;47.480;8.214;2023-06-01T03:34:00;21.20;42.80
35363;DHT22;21463;47.480;8.214;2023-06-01T03:35:04;21.20;42.80
35363;DHT22;21463;47.480;8.214;2023-06-01T03:36:06;21.30;42.90
35363;DHT22;21463;47.480;8.214;2023-06-01T03:37:10;21.20;42.80
35363;DHT22;21463;47.480;8.214;2023-06-01T03:38:12;21.20;42.90
35363;DHT22;21463;47.480;8.214;2023-06-01T03:39:15;21.20;42.90
35363;DHT22;21463;47.480;8.214;2023-06-01T03:40:18;21.20;42.90
35363;DHT22;21463;47.480;8.214;2023-06-01T03:41:21;21.20;42.90
35363;DHT22;21463;47.480;8.214;2023-06-01T03:42:24;21.20;42.90
35363;DHT22;21463;47.480;8.214;2023-06-01T03:43:28;21.20;42.90
35363;DHT22;21463;47.480;8.214;2023-06-01T03:44:31;21.20;42.90
35363;DHT22;21463;47.480;8.214;2023-06-01T03:45:34;21.20;42.90
35363;DHT22;21463;47.480;8.214;2023-06-01T03:46:37;21.20;42.90
35363;DHT22;21463;47.480;8.214;2023-06-01T03:47:39;21.20;42.90
35363;DHT22;21463;47.480;8.214;2023-06-01T03:48:42;21.20;43.00
35363;DHT22;21463;47.480;8.214;2023-06-01T03:49:45;21.20;43.50
35363;DHT22;21463;47.480;8.214;2023-06-01T03:50:47;21.20;43.00
35363;DHT22;21463;47.480;8.214;2023-06-01T03:51:50;21.20;43.00
35363;DHT22;21463;47.480;8.214;2023-06-01T03:52:54;21.20;43.00
35363;DHT22;21463;47.480;8.214;2023-06-01T03:53:57;21.30;43.10
35363;DHT22;21463;47.480;8.214;2023-06-01T03:55:03;21.20;43.00
35363;DHT22;21463;47.480;8.214;2023-06-01T03:56:36;21.20;43.60
35363;DHT22;21463;47.480;8.214;2023-06-01T03:57:39;21.20;43.00
35363;DHT22;21463;47.480;8.214;2023-06-01T03:58:41;21.20;43.00
35363;DHT22;21463;47.480;8.214;2023-06-01T03:59:45;21.20;43.00
35363;DHT22;21463;47.480;8.214;2023-06-01T04:00:47;21.20;43.60
35363;DHT22;21463;47.480;8.214;2023-06-01T04:01:50;21.20;43.60
35363;DHT22;21463;47.480;8.214;2023-06-01T04:02:54;21.20;43.10
35363;DHT22;21463;47.480;8.214;2023-06-01T04:03:59;21.30;43.10
35363;DHT22;21463;47.480;8.214;2023-06-01T04:05:02;21.10;43.00
35363;DHT22;21463;47.480;8.214;2023-06-01T04:06:10;21.20;43.10
35363;DHT22;21463;47.480;8.214;2023-06-01T04:07:18;21.20;43.20
35363;DHT22;21463;47.480;8.214;2023-06-01T04:08:24;21.20;43.10
35363;DHT22;21463;47.480;8.214;2023-06-01T04:09:27;21.20;43.10
35363;DHT22;21463;47.480;8.214;2023-06-01T04:10:30;21.20;43.20
35363;DHT22;21463;47.480;8.214;2023-06-01T04:11:33;21.20;43.20
35363;DHT22;21463;47.480;8.214;2023-06-01T04:12:35;21.20;43.20
35363;DHT22;21463;47.480;8.214;2023-06-01T04:13:37;21.20;43.20
35363;DHT22;21463;47.480;8.214;2023-06-01T04:14:40;21.20;43.20
35363;DHT22;21463;47.480;8.214;2023-06-01T04:15:44;21.20;43.20
35363;DHT22;21463;47.480;8.214;2023-06-01T04:16:47;21.20;43.20
35363;DHT22;21463;47.480;8.214;2023-06-01T04:17:50;21.20;43.20
35363;DHT22;21463;47.480;8.214;2023-06-01T04:18:52;21.20;43.20
35363;DHT22;21463;47.480;8.214;2023-06-01T04:19:58;21.20;43.20
35363;DHT22;21463;47.480;8.214;2023-06-01T04:21:01;21.20;43.20
35363;DHT22;21463;47.480;8.214;2023-06-01T04:22:04;21.20;43.20
35363;DHT22;21463;47.480;8.214;2023-06-01T04:23:07;21.20;43.20
35363;DHT22;21463;47.480;8.214;2023-06-01T04:24:10;21.20;43.20
35363;DHT22;21463;47.480;8.214;2023-06-01T04:25:14;21.20;43.20
35363;DHT22;21463;47.480;8.214;2023-06-01T04:26:21;21.20;43.20
35363;DHT22;21463;47.480;8.214;2023-06-01T04:27:23;21.20;43.30
35363;DHT22;21463;47.480;8.214;2023-06-01T04:28:27;21.20;43.30
35363;DHT22;21463;47.480;8.214;2023-06-01T04:29:30;21.20;43.30
35363;DHT22;21463;47.480;8.214;2023-06-01T04:30:33;21.20;43.30
35363;DHT22;21463;47.480;8.214;2023-06-01T04:31:36;21.30;43.40
35363;DHT22;21463;47.480;8.214;2023-06-01T04:32:38;21.30;43.40
35363;DHT22;21463;47.480;8.214;2023-06-01T04:33:44;21.20;43.30
35363;DHT22;21463;47.480;8.214;2023-06-01T04:34:47;21.20;43.30
35363;DHT22;21463;47.480;8.214;2023-06-01T04:35:56;21.20;43.30
35363;DHT22;21463;47.480;8.214;2023-06-01T04:37:02;21.20;43.30
35363;DHT22;21463;47.480;8.214;2023-06-01T04:38:06;21.20;43.30
35363;DHT22;21463;47.480;8.214;2023-06-01T04:39:09;21.20;43.30
35363;DHT22;21463;47.480;8.214;2023-06-01T04:40:12;21.20;43.40
35363;DHT22;21463;47.480;8.214;2023-06-01T04:41:17;21.20;43.30
35363;DHT22;21463;47.480;8.214;2023-06-01T04:42:20;21.20;43.40
35363;DHT22;21463;47.480;8.214;2023-06-01T04:43:23;21.20;43.40
35363;DHT22;21463;47.480;8.214;2023-06-01T04:44:27;21.20;43.40
35363;DHT22;21463;47.480;8.214;2023-06-01T04:45:29;21.20;43.30
35363;DHT22;21463;47.480;8.214;2023-06-01T04:46:35;21.20;43.40
35363;DHT22;21463;47.480;8.214;2023-06-01T04:47:41;21.20;43.40
35363;DHT22;21463;47.480;8.214;2023-06-01T04:48:56;21.20;43.40
35363;DHT22;21463;47.480;8.214;2023-06-01T04:50:01;21.30;43.50
35363;DHT22;21463;47.480;8.214;2023-06-01T04:51:05;21.20;43.40
35363;DHT22;21463;47.480;8.214;2023-06-01T04:52:07;21.20;43.40
35363;DHT22;21463;47.480;8.214;2023-06-01T04:53:10;21.20;43.40
35363;DHT22;21463;47.480;8.214;2023-06-01T04:54:13;21.20;43.40
35363;DHT22;21463;47.480;8.214;2023-06-01T04:55:17;21.20;43.40
35363;DHT22;21463;47.480;8.214;2023-06-01T04:56:23;21.20;43.40
35363;DHT22;21463;47.480;8.214;2023-06-01T04:57:30;21.20;43.40
35363;DHT22;21463;47.480;8.214;2023-06-01T04:58:33;21.20;43.50
35363;DHT22;21463;47.480;8.214;2023-06-01T04:59:35;21.20;43.50
35363;DHT22;21463;47.480;8.214;2023-06-01T05:00:38;21.20;43.40
35363;DHT22;21463;47.480;8.214;2023-06-01T05:01:41;21.20;43.50
35363;DHT22;21463;47.480;8.214;2023-06-01T05:02:44;21.20;43.50
35363;DHT22;21463;47.480;8.214;2023-06-01T05:03:47;21.20;43.50
35363;DHT22;21463;47.480;8.214;2023-06-01T05:04:50;21.20;43.50
35363;DHT22;21463;47.480;8.214;2023-06-01T05:05:53;21.20;43.50
35363;DHT22;21463;47.480;8.214;2023-06-01T05:06:55;21.20;43.50
35363;DHT22;21463;47.480;8.214;2023-06-01T05:07:58;21.20;43.50
35363;DHT22;21463;47.480;8.214;2023-06-01T05:09:02;21.20;43.50
35363;DHT22;21463;47.480;8.214;2023-06-01T05:10:08;21.10;43.40
35363;DHT22;21463;47.480;8.214;2023-06-01T05:11:18;21.20;43.50
35363;DHT22;21463;47.480;8.214;2023-06-01T05:12:21;21.20;43.50
35363;DHT22;21463;47.480;8.214;2023-06-01T05:13:23;21.20;43.50
35363;DHT22;21463;47.480;8.214;2023-06-01T05:14:26;21.20;43.50
35363;DHT22;21463;47.480;8.214;2023-06-01T05:15:29;21.20;43.50
35363;DHT22;21463;47.480;8.214;2023-06-01T05:16:33;21.20;43.50
35363;DHT22;21463;47.480;8.214;2023-06-01T05:17:40;21.20;43.50
35363;DHT22;21463;47.480;8.214;2023-06-01T05:18:46;21.20;43.50
35363;DHT22;21463;47.480;8.214;2023-06-01T05:19:49;21.20;43.50
35363;DHT22;21463;47.480;8.214;2023-06-01T05:20:51;21.20;43.50
35363;DHT22;21463;47.480;8.214;2023-06-01T05:21:54;21.20;43.50
35363;DHT22;21463;47.480;8.214;2023-06-01T05:22:56;21.20;43.50
35363;DHT22;21463;47.480;8.214;2023-06-01T05:23:59;21.20;43.50
35363;DHT22;21463;47.480;8.214;2023-06-01T05:25:02;21.20;43.50
35363;DHT22;21463;47.480;8.214;2023-06-01T05:26:05;21.20;43.60
35363;DHT22;21463;47.480;8.214;2023-06-01T05:27:09;21.20;43.60
35363;DHT22;21463;47.480;8.214;2023-06-01T05:28:11;21.20;43.60
35363;DHT22;21463;47.480;8.214;2023-06-01T05:29:14;21.20;43.60
35363;DHT22;21463;47.480;8.214;2023-06-01T05:30:17;21.20;43.60
35363;DHT22;21463;47.480;8.214;2023-06-01T05:31:22;21.20;43.60
35363;DHT22;21463;47.480;8.214;2023-06-01T05:32:29;21.20;43.60
35363;DHT22;21463;47.480;8.214;2023-06-01T05:33:39;21.10;43.60
35363;DHT22;21463;47.480;8.214;2023-06-01T05:34:42;21.30;43.70
35363;DHT22;21463;47.480;8.214;2023-06-01T05:35:44;21.20;43.60
35363;DHT22;21463;47.480;8.214;2023-06-01T05:36:51;21.20;43.60
35363;DHT22;21463;47.480;8.214;2023-06-01T05:37:54;21.20;43.60
35363;DHT22;21463;47.480;8.214;2023-06-01T05:38:56;21.20;43.60
35363;DHT22;21463;47.480;8.214;2023-06-01T05:39:58;21.20;43.60
35363;DHT22;21463;47.480;8.214;2023-06-01T05:41:01;21.20;43.70
35363;DHT22;21463;47.480;8.214;2023-06-01T05:42:04;21.10;43.60
35363;DHT22;21463;47.480;8.214;2023-06-01T05:43:11;21.10;43.60
35363;DHT22;21463;47.480;8.214;2023-06-01T05:44:14;21.20;43.70
35363;DHT22;21463;47.480;8.214;2023-06-01T05:45:16;21.10;43.60
35363;DHT22;21463;47.480;8.214;2023-06-01T05:46:20;21.20;43.70
35363;DHT22;21463;47.480;8.214;2023-06-01T05:47:22;21.20;43.70
35363;DHT22;21463;47.480;8.214;2023-06-01T05:48:25;21.20;43.70
35363;DHT22;21463;47.480;8.214;2023-06-01T05:49:29;21.20;43.70
35363;DHT22;21463;47.480;8.214;2023-06-01T05:50:34;21.10;43.60
35363;DHT22;21463;47.480;8.214;2023-06-01T05:51:36;21.20;43.80
35363;DHT22;21463;47.480;8.214;2023-06-01T05:52:40;21.20;43.70
35363;DHT22;21463;47.480;8.214;2023-06-01T05:53:44;21.20;43.70
35363;DHT22;21463;47.480;8.214;2023-06-01T05:54:47;21.20;43.70
35363;DHT22;21463;47.480;8.214;2023-06-01T05:55:51;21.20;43.70
35363;DHT22;21463;47.480;8.214;2023-06-01T05:56:55;21.20;43.70
35363;DHT22;21463;47.480;8.214;2023-06-01T05:57:58;21.20;43.80
35363;DHT22;21463;47.480;8.214;2023-06-01T05:59:01;21.20;43.80
35363;DHT22;21463;47.480;8.214;2023-06-01T06:00:04;21.20;43.80
35363;DHT22;21463;47.480;8.214;2023-06-01T06:01:16;21.20;43.80
35363;DHT22;21463;47.480;8.214;2023-06-01T06:02:22;21.20;43.80
35363;DHT22;21463;47.480;8.214;2023-06-01T06:03:25;21.20;43.80
35363;DHT22;21463;47.480;8.214;2023-06-01T06:04:27;21.20;43.80
35363;DHT22;21463;47.480;8.214;2023-06-01T06:05:30;21.20;44.40
35363;DHT22;21463;47.480;8.214;2023-06-01T06:06:32;21.20;43.80
35363;DHT22;21463;47.480;8.214;2023-06-01T06:07:37;21.20;43.80
35363;DHT22;21463;47.480;8.214;2023-06-01T06:08:40;21.20;43.80
35363;DHT22;21463;47.480;8.214;2023-06-01T06:09:42;21.20;43.90
35363;DHT22;21463;47.480;8.214;2023-06-01T06:10:44;21.20;43.80
35363;DHT22;21463;47.480;8.214;2023-06-01T06:11:47;21.20;43.90
35363;DHT22;21463;47.480;8.214;2023-06-01T06:12:49;21.20;43.80
35363;DHT22;21463;47.480;8.214;2023-06-01T06:13:53;21.00;43.70
35363;DHT22;21463;47.480;8.214;2023-06-01T06:14:55;21.10;43.80
35363;DHT22;21463;47.480;8.214;2023-06-01T06:15:57;21.20;43.90
35363;DHT22;21463;47.480;8.214;2023-06-01T06:17:00;21.10;43.80
35363;DHT22;21463;47.480;8.214;2023-06-01T06:18:02;21.20;43.90
35363;DHT22;21463;47.480;8.214;2023-06-01T06:19:05;21.20;43.90
35363;DHT22;21463;47.480;8.214;2023-06-01T06:20:07;21.20;43.90
35363;DHT22;21463;47.480;8.214;2023-06-01T06:21:10;21.20;43.90
35363;DHT22;21463;47.480;8.214;2023-06-01T06:22:12;21.20;43.90
35363;DHT22;21463;47.480;8.214;2023-06-01T06:23:16;21.20;43.90
35363;DHT22;21463;47.480;8.214;2023-06-01T06:24:18;21.20;43.90
35363;DHT22;21463;47.480;8.214;2023-06-01T06:25:20;21.20;44.00
35363;DHT22;21463;47.480;8.214;2023-06-01T06:26:23;21.10;43.90
35363;DHT22;21463;47.480;8.214;2023-06-01T06:27:25;21.20;44.00
35363;DHT22;21463;47.480;8.214;2023-06-01T06:28:28;21.10;43.90
35363;DHT22;21463;47.480;8.214;2023-06-01T06:29:31;21.20;44.00
35363;DHT22;21463;47.480;8.214;2023-06-01T06:30:33;21.20;44.00
35363;DHT22;21463;47.480;8.214;2023-06-01T06:31:35;21.10;44.00
35363;DHT22;21463;47.480;8.214;2023-06-01T06:32:38;21.10;43.90
35363;DHT22;21463;47.480;8.214;2023-06-01T06:33:40;21.20;44.00
35363;DHT22;21463;47.480;8.214;2023-06-01T06:34:43;21.10;43.90
35363;DHT22;21463;47.480;8.214;2023-06-01T06:35:45;21.20;44.00
35363;DHT22;21463;47.480;8.214;2023-06-01T06:36:48;21.20;44.00
35363;DHT22;21463;47.480;8.214;2023-06-01T06:37:51;21.20;44.00
35363;DHT22;21463;47.480;8.214;2023-06-01T06:38:54;21.10;44.00
35363;DHT22;21463;47.480;8.214;2023-06-01T06:39:56;21.20;44.10
35363;DHT22;21463;47.480;8.214;2023-06-01T06:40:59;21.10;44.00
35363;DHT22;21463;47.480;8.214;2023-06-01T06:42:02;21.20;44.10
35363;DHT22;21463;47.480;8.214;2023-06-01T06:43:04;21.10;44.00
35363;DHT22;21463;47.480;8.214;2023-06-01T06:44:07;21.10;44.00
35363;DHT22;21463;47.480;8.214;2023-06-01T06:45:12;21.20;44.10
35363;DHT22;21463;47.480;8.214;2023-06-01T06:46:15;21.10;44.10
35363;DHT22;21463;47.480;8.214;2023-06-01T06:47:18;21.10;44.10
35363;DHT22;21463;47.480;8.214;2023-06-01T06:48:22;21.10;44.10
35363;DHT22;21463;47.480;8.214;2023-06-01T06:49:26;21.10;44.10
35363;DHT22;21463;47.480;8.214;2023-06-01T06:50:29;21.20;44.20
35363;DHT22;21463;47.480;8.214;2023-06-01T06:51:32;21.10;44.10